Time;durP1;ratioP1;P1;durP2;ratioP2;P2;SDS_P1;SDS_P2;PMS_P1;PMS_P2;Temp;Humidity;BMP_temperature;BMP_pressure;BME280_temperature;BME280_humidity;BME280_pressure;Samples;Min_cycle;Max_cycle;Signal;HPM_P1;HPM_P2
2021/07/04 00:00:13;;;;;;;21.27;18.57;;;19.90;99.90;;;;;;4975434;28;20459;-67
2021/07/04 00:02:40;;;;;;;22.43;20.73;;;19.90;99.90;;;;;;4993490;28;20446;-67
2021/07/04 00:05:09;;;;;;;22.37;20.37;;;20.00;99.90;;;;;;4993287;28;20458;-66
2021/07/04 00:07:41;;;;;;;20.30;18.90;;;19.90;99.90;;;;;;4993566;28;20831;-67
2021/07/04 00:10:08;;;;;;;22.57;20.87;;;19.90;99.90;;;;;;4992228;28;20482;-67
2021/07/04 00:12:35;;;;;;;24.00;22.00;;;20.00;99.90;;;;;;4973882;28;20454;-67
2021/07/04 00:15:02;;;;;;;22.97;21.00;;;20.00;99.90;;;;;;4974037;28;20925;-66
2021/07/04 00:17:29;;;;;;;20.07;18.67;;;20.10;99.90;;;;;;4974001;28;20964;-67
2021/07/04 00:19:55;;;;;;;23.20;21.40;;;20.20;99.90;;;;;;4974060;28;20444;-66
2021/07/04 00:22:22;;;;;;;22.90;21.00;;;20.20;99.90;;;;;;4992400;28;20474;-68
2021/07/04 00:24:50;;;;;;;23.97;22.07;;;20.20;99.90;;;;;;4993191;28;20455;-67
2021/07/04 00:27:17;;;;;;;24.03;21.93;;;20.10;99.90;;;;;;4993059;28;20897;-67
2021/07/04 00:29:43;;;;;;;23.40;21.50;;;20.10;99.90;;;;;;4993220;28;20471;-66
2021/07/04 00:32:10;;;;;;;23.47;21.67;;;20.00;99.90;;;;;;4977004;28;20471;-67
2021/07/04 00:34:37;;;;;;;27.13;24.90;;;20.00;99.90;;;;;;4992884;28;20459;-67
2021/07/04 00:37:04;;;;;;;25.40;23.10;;;20.00;99.90;;;;;;4992409;28;20474;-67
2021/07/04 00:39:31;;;;;;;24.90;22.90;;;20.00;99.90;;;;;;4993085;28;20439;-67
2021/07/04 00:41:59;;;;;;;23.67;21.67;;;20.00;99.90;;;;;;4977569;28;20451;-67
2021/07/04 00:44:25;;;;;;;26.80;24.63;;;19.90;99.90;;;;;;4973835;28;20451;-67
2021/07/04 00:46:52;;;;;;;28.47;26.13;;;19.90;99.90;;;;;;4973508;28;20491;-67
2021/07/04 00:49:19;;;;;;;25.07;23.17;;;19.80;99.90;;;;;;4973462;28;20483;-66
2021/07/04 00:51:45;;;;;;;27.00;24.67;;;19.80;99.90;;;;;;4986193;28;20451;-66
2021/07/04 00:54:13;;;;;;;25.93;23.83;;;19.80;99.90;;;;;;4992862;28;20449;-67
2021/07/04 00:56:39;;;;;;;27.03;24.90;;;19.80;99.90;;;;;;4992453;28;20450;-68
2021/07/04 00:59:08;;;;;;;26.30;24.13;;;19.80;99.90;;;;;;4992887;28;20446;-67
2021/07/04 01:01:37;;;;;;;26.63;24.40;;;19.80;99.90;;;;;;4980525;28;20447;-65
2021/07/04 01:04:03;;;;;;;26.60;24.40;;;19.80;99.90;;;;;;4973130;28;20451;-66
2021/07/04 01:06:30;;;;;;;28.33;25.93;;;19.70;99.90;;;;;;4973224;28;20455;-67
2021/07/04 01:08:57;;;;;;;29.00;26.37;;;19.50;99.90;;;;;;4973103;28;20492;-66
2021/07/04 01:11:24;;;;;;;26.37;24.37;;;19.50;99.90;;;;;;4982233;28;20474;-67
2021/07/04 01:13:51;;;;;;;26.37;24.30;;;19.60;99.90;;;;;;4992562;28;20447;-67
2021/07/04 01:16:19;;;;;;;26.13;23.87;;;19.60;99.90;;;;;;4992545;28;20443;-66
2021/07/04 01:18:46;;;;;;;27.57;25.17;;;19.60;99.90;;;;;;4990480;28;20948;-67
2021/07/04 01:21:15;;;;;;;25.87;23.47;;;19.70;99.90;;;;;;4974038;28;20452;-66
2021/07/04 01:23:43;;;;;;;25.60;23.40;;;19.80;99.90;;;;;;4973022;28;20455;-67
2021/07/04 01:26:10;;;;;;;25.90;23.70;;;19.90;99.90;;;;;;4972962;28;20810;-66
2021/07/04 01:28:37;;;;;;;28.37;25.97;;;20.00;99.90;;;;;;4973026;28;20467;-67
2021/07/04 01:31:04;;;;;;;25.87;23.60;;;20.10;99.90;;;;;;4992307;28;20443;-66
2021/07/04 01:33:31;;;;;;;26.07;24.07;;;20.10;99.90;;;;;;4992373;28;20453;-66
2021/07/04 01:35:58;;;;;;;26.10;23.90;;;20.10;99.90;;;;;;4992296;28;20428;-67
2021/07/04 01:38:24;;;;;;;28.83;26.00;;;20.10;99.90;;;;;;4992252;28;20462;-67
2021/07/04 01:40:53;;;;;;;29.47;26.73;;;20.10;99.90;;;;;;4973891;28;20462;-66
2021/07/04 01:43:20;;;;;;;26.67;24.37;;;20.10;99.90;;;;;;4986208;28;20458;-66
2021/07/04 01:45:47;;;;;;;27.07;24.87;;;20.00;99.90;;;;;;4992227;28;20450;-67
2021/07/04 01:48:14;;;;;;;27.70;25.50;;;19.90;99.90;;;;;;4993792;28;20475;-67
2021/07/04 01:50:43;;;;;;;28.13;25.83;;;20.00;99.90;;;;;;4979951;28;20487;-67
2021/07/04 01:53:10;;;;;;;26.37;23.93;;;19.90;99.90;;;;;;4995814;28;20450;-67
2021/07/04 01:55:37;;;;;;;29.23;26.53;;;19.90;99.90;;;;;;4995905;28;20450;-67
2021/07/04 01:58:05;;;;;;;31.00;28.23;;;19.90;99.90;;;;;;4995871;28;20976;-67
2021/07/04 02:00:34;;;;;;;30.40;27.90;;;19.80;99.90;;;;;;4980438;28;20455;-67
2021/07/04 02:03:03;;;;;;;26.83;24.73;;;19.70;99.90;;;;;;4976368;28;20444;-67
2021/07/04 02:05:30;;;;;;;25.37;23.33;;;19.60;99.90;;;;;;4976778;28;20451;-66
2021/07/04 02:07:57;;;;;;;32.60;29.70;;;19.60;99.90;;;;;;4976491;28;20471;-67
2021/07/04 02:10:28;;;;;;;29.40;26.90;;;19.60;99.90;;;;;;4990086;28;20486;-66
2021/07/04 02:12:55;;;;;;;27.07;24.97;;;19.50;99.90;;;;;;4995795;28;20920;-66
2021/07/04 02:15:25;;;;;;;29.97;27.33;;;19.50;99.90;;;;;;4995769;28;20446;-66
2021/07/04 02:17:52;;;;;;;30.77;28.13;;;19.50;99.90;;;;;;4995632;28;20471;-68
2021/07/04 02:20:30;;;;;;;30.03;27.57;;;19.40;99.90;;;;;;4982454;28;20447;-65
2021/07/04 02:22:57;;;;;;;29.00;26.40;;;19.40;99.90;;;;;;4975948;28;20483;-66
2021/07/04 02:25:24;;;;;;;31.60;28.67;;;19.30;99.90;;;;;;4976028;28;20455;-67
2021/07/04 02:27:51;;;;;;;31.90;28.80;;;19.30;99.90;;;;;;4976285;28;20478;-67
2021/07/04 02:30:17;;;;;;;28.40;25.90;;;19.20;99.90;;;;;;4987998;28;20497;-66
2021/07/04 02:32:46;;;;;;;31.20;28.27;;;19.10;99.90;;;;;;4995279;28;20450;-66
2021/07/04 02:35:13;;;;;;;33.17;30.00;;;19.10;99.90;;;;;;4995445;28;20453;-68
2021/07/04 02:37:40;;;;;;;32.33;29.33;;;19.00;99.90;;;;;;4995179;28;20474;-66
2021/07/04 02:40:07;;;;;;;30.20;27.27;;;19.00;99.90;;;;;;4984388;28;20879;-67
2021/07/04 02:42:34;;;;;;;32.07;29.23;;;19.00;99.90;;;;;;4981763;28;20447;-66
2021/07/04 02:45:01;;;;;;;30.40;27.60;;;19.00;99.90;;;;;;4995239;28;20482;-67
2021/07/04 02:47:28;;;;;;;32.30;29.60;;;18.90;99.90;;;;;;4995095;28;20478;-66
2021/07/04 02:49:56;;;;;;;32.20;29.10;;;19.00;99.90;;;;;;4985836;28;20479;-66
2021/07/04 02:52:23;;;;;;;30.87;27.87;;;19.00;99.90;;;;;;4975466;28;20451;-67
2021/07/04 02:54:50;;;;;;;31.63;28.73;;;18.90;99.90;;;;;;4975671;28;20444;-66
2021/07/04 02:57:16;;;;;;;34.57;31.47;;;19.00;99.90;;;;;;4975442;28;20471;-66
2021/07/04 02:59:43;;;;;;;32.97;29.80;;;18.90;99.90;;;;;;4981830;28;20455;-66
2021/07/04 03:02:10;;;;;;;34.20;31.03;;;18.90;99.90;;;;;;4994860;28;20450;-66
2021/07/04 03:04:37;;;;;;;34.90;31.53;;;18.90;99.90;;;;;;4994981;28;20447;-66
2021/07/04 03:07:06;;;;;;;30.40;27.50;;;18.90;99.90;;;;;;4994714;28;21009;-66
2021/07/04 03:09:32;;;;;;;33.40;28.20;;;18.90;99.90;;;;;;4989049;28;20486;-66
2021/07/04 03:11:59;;;;;;;32.83;29.57;;;18.90;99.90;;;;;;4975025;28;20459;-66
2021/07/04 03:14:26;;;;;;;29.40;26.60;;;18.90;99.90;;;;;;4975175;28;20448;-66
2021/07/04 03:16:52;;;;;;;31.47;28.67;;;18.90;99.90;;;;;;4975067;28;20470;-67
2021/07/04 03:19:19;;;;;;;34.40;30.77;;;19.00;99.90;;;;;;4978488;28;20857;-66
2021/07/04 03:21:46;;;;;;;31.40;28.50;;;18.90;99.90;;;;;;4994267;28;20443;-67
2021/07/04 03:24:14;;;;;;;32.37;29.37;;;19.00;99.90;;;;;;4994601;28;20457;-66
2021/07/04 03:26:41;;;;;;;32.07;29.10;;;19.00;99.90;;;;;;4994043;28;20451;-65
2021/07/04 03:29:07;;;;;;;33.63;30.23;;;19.00;99.90;;;;;;4992320;28;20458;-65
2021/07/04 03:31:34;;;;;;;33.70;30.50;;;19.00;99.90;;;;;;4974764;28;20452;-67
2021/07/04 03:34:01;;;;;;;31.23;28.27;;;19.00;99.90;;;;;;4974578;28;20989;-66
2021/07/04 03:36:28;;;;;;;34.10;30.67;;;19.10;99.90;;;;;;4975142;28;20470;-67
2021/07/04 03:38:54;;;;;;;31.70;28.60;;;19.10;99.90;;;;;;4975222;28;20547;-67
2021/07/04 03:41:23;;;;;;;28.00;25.50;;;19.10;99.90;;;;;;4989888;28;20444;-67
2021/07/04 03:43:49;;;;;;;30.40;27.67;;;19.10;99.90;;;;;;4989757;28;20447;-66
2021/07/04 03:46:16;;;;;;;29.30;26.70;;;19.20;99.90;;;;;;4994348;28;20470;-66
2021/07/04 03:48:43;;;;;;;29.53;26.73;;;19.20;99.90;;;;;;4994331;28;20474;-66
2021/07/04 03:51:10;;;;;;;28.37;25.87;;;19.20;99.90;;;;;;4992987;28;20490;-66
2021/07/04 03:53:36;;;;;;;26.33;24.00;;;19.20;99.90;;;;;;4994168;28;20963;-66
2021/07/04 03:56:03;;;;;;;27.50;25.00;;;19.30;99.90;;;;;;4994385;28;20438;-65
2021/07/04 03:58:31;;;;;;;28.20;25.43;;;19.30;99.90;;;;;;4994157;28;20486;-67
2021/07/04 04:00:58;;;;;;;27.03;24.70;;;19.30;99.90;;;;;;4987198;28;20451;-66
2021/07/04 04:03:25;;;;;;;27.17;24.80;;;19.30;99.90;;;;;;4993773;28;20843;-68
2021/07/04 04:05:51;;;;;;;25.87;23.80;;;19.40;99.90;;;;;;4993805;28;20451;-67
2021/07/04 04:08:18;;;;;;;27.17;24.87;;;19.40;99.90;;;;;;4993686;28;20823;-66
2021/07/04 04:10:45;;;;;;;29.53;25.80;;;19.40;99.90;;;;;;4979533;28;20480;-67
2021/07/04 04:13:11;;;;;;;25.00;22.90;;;19.40;99.90;;;;;;4973521;28;20450;-67
2021/07/04 04:15:39;;;;;;;24.90;22.87;;;19.50;99.90;;;;;;4974426;28;20459;-66
2021/07/04 04:18:06;;;;;;;25.37;23.10;;;19.60;99.90;;;;;;4974053;28;20483;-65
2021/07/04 04:20:33;;;;;;;25.20;23.17;;;19.60;99.90;;;;;;4985796;28;20454;-66
2021/07/04 04:23:00;;;;;;;24.57;22.57;;;19.60;99.90;;;;;;4993248;28;21118;-68
2021/07/04 04:25:27;;;;;;;27.00;24.40;;;19.60;99.90;;;;;;4993280;28;20458;-66
2021/07/04 04:27:53;;;;;;;23.63;21.60;;;19.60;99.90;;;;;;4993256;28;20557;-67
2021/07/04 04:30:20;;;;;;;22.90;20.87;;;19.60;99.90;;;;;;4983246;28;20483;-67
2021/07/04 04:32:55;;;;;;;23.60;21.80;;;19.60;99.90;;;;;;5088790;27;21030;-68
2021/07/04 04:35:21;;;;;;;23.77;21.87;;;19.60;99.90;;;;;;5089086;28;20948;-67
2021/07/04 04:37:48;;;;;;;22.80;21.10;;;19.70;99.90;;;;;;5089122;28;20462;-67
2021/07/04 04:40:15;;;;;;;23.33;21.53;;;19.80;99.90;;;;;;5088526;28;20457;-68
2021/07/04 04:42:41;;;;;;;43.33;23.60;;;19.90;99.90;;;;;;5084021;28;20482;-68
2021/07/04 04:45:09;;;;;;;23.73;22.03;;;19.90;99.90;;;;;;5068793;28;20961;-66
2021/07/04 04:47:36;;;;;;;23.70;21.87;;;20.00;99.90;;;;;;5068712;28;21137;-67
2021/07/04 04:50:05;;;;;;;20.97;19.53;;;20.00;99.90;;;;;;5075594;28;20471;-67
2021/07/04 04:52:32;;;;;;;22.90;21.10;;;20.20;99.90;;;;;;5088591;28;20948;-67
2021/07/04 04:54:59;;;;;;;22.07;20.10;;;20.20;99.90;;;;;;5088854;28;20450;-68
2021/07/04 04:57:26;;;;;;;22.33;20.73;;;20.20;99.90;;;;;;5088504;28;20462;-68
2021/07/04 04:59:52;;;;;;;22.60;21.10;;;20.20;99.90;;;;;;5082886;28;20447;-67
2021/07/04 05:02:19;;;;;;;22.80;20.80;;;20.20;99.90;;;;;;5067942;28;20479;-68
2021/07/04 05:04:46;;;;;;;22.73;21.13;;;20.20;99.90;;;;;;5068364;28;20444;-68
2021/07/04 05:07:14;;;;;;;24.33;22.50;;;20.10;99.90;;;;;;5068373;28;20479;-67
2021/07/04 05:09:41;;;;;;;24.07;22.37;;;20.10;99.90;;;;;;5068640;28;21099;-68
2021/07/04 05:12:08;;;;;;;23.53;21.70;;;20.10;99.90;;;;;;5067914;28;20952;-68
2021/07/04 05:14:35;;;;;;;22.63;21.03;;;20.00;99.90;;;;;;5068269;28;20455;-67
2021/07/04 05:17:01;;;;;;;24.97;23.00;;;19.90;99.90;;;;;;5068085;28;20459;-68
2021/07/04 05:19:28;;;;;;;26.87;24.30;;;19.90;99.90;;;;;;5069637;28;20451;-67
2021/07/04 05:21:55;;;;;;;24.43;22.63;;;19.80;99.90;;;;;;5087936;28;20474;-66
2021/07/04 05:24:23;;;;;;;23.10;21.60;;;19.70;99.90;;;;;;5088283;28;20488;-66
2021/07/04 05:26:49;;;;;;;25.10;23.20;;;19.60;99.90;;;;;;5088143;28;20443;-65
2021/07/04 05:29:16;;;;;;;25.53;23.43;;;19.60;99.90;;;;;;5074217;28;20452;-66
2021/07/04 05:31:43;;;;;;;25.50;23.40;;;19.60;99.90;;;;;;5067458;28;20463;-66
2021/07/04 05:34:09;;;;;;;25.93;24.03;;;19.50;99.90;;;;;;5067715;28;20443;-66
2021/07/04 05:36:36;;;;;;;25.40;23.00;;;19.50;99.90;;;;;;5067712;28;20450;-67
2021/07/04 05:39:03;;;;;;;25.23;23.40;;;19.50;99.90;;;;;;5079300;28;20446;-67
2021/07/04 05:41:31;;;;;;;24.10;22.23;;;19.50;99.90;;;;;;5087610;28;20479;-67
2021/07/04 05:43:58;;;;;;;24.57;22.87;;;19.50;99.90;;;;;;5075963;28;20447;-67
2021/07/04 05:46:24;;;;;;;23.87;21.93;;;19.50;99.90;;;;;;5074321;28;20454;-66
2021/07/04 05:48:52;;;;;;;24.27;22.27;;;19.50;99.90;;;;;;5072324;28;20466;-67
2021/07/04 05:51:18;;;;;;;24.43;22.43;;;19.60;99.90;;;;;;5060357;28;20471;-67
2021/07/04 05:53:45;;;;;;;21.23;19.63;;;19.80;99.90;;;;;;5054125;28;20930;-68
2021/07/04 05:56:12;;;;;;;24.07;21.93;;;20.10;99.90;;;;;;5054220;28;20448;-67
2021/07/04 05:58:44;;;;;;;25.23;23.20;;;20.50;99.90;;;;;;5063991;23;21049;-66
2021/07/04 06:01:12;;;;;;;22.27;20.67;;;20.90;99.90;;;;;;5041265;28;20850;-66
2021/07/04 06:03:40;;;;;;;23.33;21.47;;;21.20;99.90;;;;;;5033865;28;20449;-66
2021/07/04 06:06:06;;;;;;;22.97;21.03;;;21.50;99.90;;;;;;5034074;28;20531;-66
2021/07/04 06:08:33;;;;;;;24.83;23.13;;;21.60;99.90;;;;;;5020038;28;20467;-68
2021/07/04 06:11:00;;;;;;;24.40;22.37;;;21.90;99.90;;;;;;4994582;28;20813;-66
2021/07/04 06:13:26;;;;;;;24.63;22.73;;;22.10;99.90;;;;;;4994617;28;20454;-66
2021/07/04 06:15:55;;;;;;;24.70;23.07;;;22.20;99.90;;;;;;4994618;28;20454;-66
2021/07/04 06:18:21;;;;;;;24.60;23.03;;;22.30;99.90;;;;;;4999296;28;20470;-65
2021/07/04 06:20:48;;;;;;;22.70;21.00;;;22.40;99.90;;;;;;5014466;28;20537;-66
2021/07/04 06:23:15;;;;;;;22.87;21.33;;;22.70;99.90;;;;;;5013850;28;20846;-66
2021/07/04 06:25:42;;;;;;;24.80;23.20;;;23.00;99.90;;;;;;5014041;28;20533;-66
2021/07/04 06:28:08;;;;;;;22.63;21.23;;;23.10;99.90;;;;;;5010228;28;20467;-65
2021/07/04 06:30:35;;;;;;;23.30;21.50;;;23.10;99.90;;;;;;4994663;28;20515;-66
2021/07/04 06:33:03;;;;;;;21.63;20.30;;;23.30;99.90;;;;;;4994023;28;20446;-66
2021/07/04 06:35:30;;;;;;;23.83;22.13;;;23.40;99.90;;;;;;4994164;28;20454;-65
2021/07/04 06:37:57;;;;;;;23.87;22.27;;;23.30;99.90;;;;;;4996038;28;20489;-66
2021/07/04 06:40:25;;;;;;;23.10;21.57;;;23.30;99.90;;;;;;5009270;28;20442;-66
2021/07/04 06:42:51;;;;;;;22.47;20.97;;;23.30;99.90;;;;;;5001547;28;20875;-65
2021/07/04 06:45:18;;;;;;;24.43;22.70;;;23.40;99.90;;;;;;5004194;28;20449;-65
2021/07/04 06:47:47;;;;;;;23.20;21.70;;;23.40;99.90;;;;;;5013256;28;20470;-66
2021/07/04 06:50:18;;;;;;;24.60;22.60;;;23.70;99.90;;;;;;5013763;28;20473;-65
2021/07/04 06:52:46;;;;;;;23.10;21.60;;;23.90;99.90;;;;;;5012801;28;20568;-67
2021/07/04 06:55:13;;;;;;;23.00;21.50;;;24.10;99.90;;;;;;4994460;28;20447;-66
2021/07/04 06:57:40;;;;;;;23.00;21.60;;;24.10;99.90;;;;;;5007230;28;20474;-65
2021/07/04 07:00:10;;;;;;;22.23;20.63;;;24.10;99.90;;;;;;5013588;28;20915;-66
2021/07/04 07:02:37;;;;;;;22.73;21.13;;;24.20;99.90;;;;;;5013242;28;20481;-66
2021/07/04 07:05:05;;;;;;;22.97;21.30;;;24.50;99.90;;;;;;5012875;28;20450;-66
2021/07/04 07:07:33;;;;;;;21.43;20.13;;;24.60;99.90;;;;;;5008510;28;20470;-66
2021/07/04 07:10:00;;;;;;;22.83;21.53;;;24.70;99.90;;;;;;4993599;28;20948;-66
2021/07/04 07:12:27;;;;;;;23.17;21.67;;;24.80;99.90;;;;;;4993654;28;20443;-66
2021/07/04 07:14:53;;;;;;;22.03;20.63;;;24.80;99.90;;;;;;4993798;28;20453;-66
2021/07/04 07:17:20;;;;;;;23.27;21.87;;;24.80;99.90;;;;;;4993349;28;20463;-66
2021/07/04 07:19:47;;;;;;;23.33;21.83;;;24.70;99.90;;;;;;4993535;28;20808;-66
2021/07/04 07:22:13;;;;;;;23.07;21.77;;;24.70;99.90;;;;;;5002160;28;21002;-66
2021/07/04 07:24:41;;;;;;;21.50;20.00;;;24.70;99.90;;;;;;5012920;28;20449;-66
2021/07/04 07:27:08;;;;;;;23.67;21.73;;;24.70;99.90;;;;;;5012741;28;20442;-66
2021/07/04 07:29:35;;;;;;;22.70;21.37;;;24.60;99.90;;;;;;5012754;28;20449;-66
2021/07/04 07:32:02;;;;;;;23.33;21.63;;;24.40;99.90;;;;;;5005195;28;20816;-66
2021/07/04 07:34:28;;;;;;;21.93;20.70;;;24.10;99.90;;;;;;4993312;28;20443;-66
2021/07/04 07:36:56;;;;;;;21.53;20.20;;;24.20;99.90;;;;;;4993208;28;20443;-66
2021/07/04 07:39:23;;;;;;;22.13;20.80;;;24.50;99.90;;;;;;4992853;28;20980;-66
2021/07/04 07:41:51;;;;;;;25.03;22.83;;;24.80;99.90;;;;;;4998135;28;20500;-66
2021/07/04 07:44:19;;;;;;;22.63;21.13;;;25.00;99.90;;;;;;5000107;28;20447;-66
2021/07/04 07:46:48;;;;;;;20.50;19.37;;;25.10;99.90;;;;;;4993046;28;20451;-66
2021/07/04 07:49:15;;;;;;;22.00;20.70;;;25.20;99.90;;;;;;4993003;28;20890;-66
2021/07/04 07:51:41;;;;;;;21.57;20.37;;;25.30;99.90;;;;;;4992783;28;20442;-66
2021/07/04 07:54:08;;;;;;;24.00;22.40;;;25.30;99.90;;;;;;5003422;28;20862;-67
2021/07/04 07:56:35;;;;;;;21.83;20.50;;;25.20;99.90;;;;;;5012496;28;20501;-67
2021/07/04 07:59:03;;;;;;;22.20;20.87;;;24.90;99.90;;;;;;5012317;28;21007;-66
2021/07/04 08:01:30;;;;;;;22.70;21.30;;;24.70;99.90;;;;;;5012178;28;20811;-66
2021/07/04 08:03:57;;;;;;;20.77;19.53;;;24.60;99.90;;;;;;5003714;28;20447;-66
2021/07/04 08:06:24;;;;;;;21.90;20.57;;;24.70;99.90;;;;;;5005230;28;20449;-66
2021/07/04 08:08:51;;;;;;;20.60;19.50;;;24.70;99.90;;;;;;5012387;28;20501;-66
2021/07/04 08:11:18;;;;;;;22.90;21.60;;;24.80;99.90;;;;;;5012165;28;20962;-66
2021/07/04 08:13:45;;;;;;;22.20;20.93;;;24.80;99.90;;;;;;5011388;28;20917;-66
2021/07/04 08:16:14;;;;;;;20.60;19.50;;;25.10;99.90;;;;;;5012160;28;20442;-66
2021/07/04 08:18:41;;;;;;;21.43;20.23;;;25.20;99.90;;;;;;5010717;28;20478;-66
2021/07/04 08:21:08;;;;;;;20.67;19.57;;;25.40;99.90;;;;;;5011845;28;20450;-66
2021/07/04 08:23:35;;;;;;;22.07;20.77;;;25.80;99.90;;;;;;5011984;28;20489;-66
2021/07/04 08:26:02;;;;;;;20.47;19.47;;;26.20;99.90;;;;;;5002665;28;20462;-66
2021/07/04 08:28:28;;;;;;;22.50;21.20;;;26.40;99.90;;;;;;4992317;28;20462;-67
2021/07/04 08:30:55;;;;;;;24.10;22.70;;;26.60;99.90;;;;;;4992420;28;20451;-66
2021/07/04 08:33:23;;;;;;;21.00;19.90;;;26.70;99.90;;;;;;4992124;28;20450;-66
2021/07/04 08:35:50;;;;;;;21.70;20.50;;;26.80;99.90;;;;;;4992352;28;20451;-66
2021/07/04 08:38:17;;;;;;;21.87;20.57;;;26.70;99.90;;;;;;4992252;28;20466;-66
2021/07/04 08:40:43;;;;;;;20.73;19.50;;;26.70;99.90;;;;;;4992368;28;20450;-67
2021/07/04 08:43:10;;;;;;;19.47;18.57;;;26.70;99.60;;;;;;4991964;28;20478;-67
2021/07/04 08:45:38;;;;;;;21.17;20.03;;;27.00;99.20;;;;;;4992345;28;20510;-66
2021/07/04 08:48:05;;;;;;;22.43;21.20;;;27.20;98.50;;;;;;4992169;28;20478;-66
2021/07/04 08:50:34;;;;;;;20.40;19.30;;;27.20;98.30;;;;;;4992278;28;20458;-66
2021/07/04 08:53:01;;;;;;;20.33;19.23;;;27.30;98.60;;;;;;4992044;28;20795;-67
2021/07/04 08:55:29;;;;;;;22.53;21.10;;;27.50;98.00;;;;;;4992093;28;20439;-66
2021/07/04 08:57:57;;;;;;;22.83;21.27;;;27.20;97.70;;;;;;4991998;28;20487;-66
2021/07/04 09:00:25;;;;;;;20.00;18.87;;;27.30;96.40;;;;;;5000902;28;20506;-66
2021/07/04 09:02:52;;;;;;;19.60;18.70;;;27.40;96.10;;;;;;4994301;28;20541;-66
2021/07/04 09:05:19;;;;;;;19.03;18.13;;;27.50;95.90;;;;;;4995759;28;20442;-66
2021/07/04 09:07:48;;;;;;;20.40;19.50;;;27.10;95.50;;;;;;5004160;28;20837;-66
2021/07/04 09:10:17;;;;;;;18.40;17.60;;;27.60;95.80;;;;;;4992098;28;21003;-67
2021/07/04 09:12:46;;;;;;;20.27;19.17;;;28.00;95.10;;;;;;4999740;28;20958;-66
2021/07/04 09:15:15;;;;;;;20.10;18.97;;;28.30;93.90;;;;;;5011626;28;20445;-67
2021/07/04 09:17:45;;;;;;;22.00;20.80;;;28.30;92.60;;;;;;5012201;28;20846;-66
2021/07/04 09:20:15;;;;;;;20.67;19.57;;;28.20;92.20;;;;;;5015361;28;20449;-66
2021/07/04 09:22:44;;;;;;;21.13;19.83;;;28.00;92.50;;;;;;5014917;28;20511;-66
2021/07/04 09:25:14;;;;;;;22.17;21.03;;;28.30;92.60;;;;;;5005082;28;20928;-67
2021/07/04 09:27:43;;;;;;;22.57;21.23;;;28.50;91.80;;;;;;4995475;28;20466;-66
2021/07/04 09:30:15;;;;;;;22.23;21.13;;;28.80;91.40;;;;;;4995497;28;20442;-67
2021/07/04 09:32:47;;;;;;;20.93;19.93;;;28.80;90.00;;;;;;4995245;28;20976;-66
2021/07/04 09:35:20;;;;;;;21.03;20.00;;;29.00;89.10;;;;;;4995355;28;20972;-66
2021/07/04 09:37:50;;;;;;;22.93;21.73;;;28.80;90.10;;;;;;4995523;28;20991;-67
2021/07/04 09:40:22;;;;;;;22.53;21.00;;;28.50;89.20;;;;;;4995960;28;20451;-67
2021/07/04 09:43:03;;;;;;;22.00;20.90;;;28.30;89.90;;;;;;5013701;28;20482;-66
2021/07/04 09:45:41;;;;;;;22.93;21.70;;;28.30;90.40;;;;;;5014790;28;20508;-67
2021/07/04 09:48:08;;;;;;;20.93;19.93;;;28.40;90.70;;;;;;5014799;28;20470;-67
2021/07/04 09:50:39;;;;;;;22.30;21.10;;;28.60;89.00;;;;;;5013084;28;20446;-67
2021/07/04 09:53:06;;;;;;;22.40;21.20;;;28.60;88.60;;;;;;5014539;28;20473;-67
2021/07/04 09:55:35;;;;;;;23.00;21.87;;;28.20;87.40;;;;;;5014635;28;20831;-67
2021/07/04 09:58:04;;;;;;;22.83;21.60;;;27.80;89.70;;;;;;5014402;28;20489;-67
2021/07/04 10:00:32;;;;;;;20.60;19.60;;;27.50;91.00;;;;;;5013900;28;20451;-68
2021/07/04 10:03:12;;;;;;;20.90;19.83;;;27.30;91.00;;;;;;5014396;28;20486;-67
2021/07/04 10:05:39;;;;;;;19.50;18.40;;;27.30;92.00;;;;;;5008949;28;20453;-67
2021/07/04 10:08:37;;;;;;;20.83;19.87;;;27.50;91.60;;;;;;5002650;28;20489;-67
2021/07/04 10:11:07;;;;;;;20.97;19.87;;;27.50;90.70;;;;;;5005341;28;20522;-67
2021/07/04 10:13:37;;;;;;;18.90;18.00;;;28.00;91.00;;;;;;5004138;28;20923;-67
2021/07/04 10:16:05;;;;;;;20.03;18.90;;;28.50;88.60;;;;;;5005607;28;20489;-68
2021/07/04 10:18:32;;;;;;;19.47;18.57;;;28.90;85.70;;;;;;5002395;28;20481;-67
2021/07/04 10:20:59;;;;;;;19.37;18.47;;;29.20;84.50;;;;;;5002459;28;20878;-67
2021/07/04 10:23:27;;;;;;;19.30;18.43;;;29.50;81.20;;;;;;4994340;28;20474;-67
2021/07/04 10:25:55;;;;;;;19.70;18.80;;;29.50;78.60;;;;;;5004704;28;20449;-67
2021/07/04 10:28:29;;;;;;;19.13;18.17;;;29.40;77.80;;;;;;5000677;28;20475;-68
2021/07/04 10:30:56;;;;;;;18.40;17.70;;;29.70;74.50;;;;;;5004818;28;20956;-67
2021/07/04 10:33:26;;;;;;;18.80;18.00;;;29.80;74.30;;;;;;5013990;28;20444;-67
2021/07/04 10:36:11;;;;;;;19.97;19.07;;;30.00;73.60;;;;;;5010515;28;21019;-67
2021/07/04 10:38:40;;;;;;;19.97;19.07;;;30.00;70.50;;;;;;5013286;28;20461;-67
2021/07/04 10:41:07;;;;;;;18.83;18.10;;;30.10;69.90;;;;;;5009078;28;20496;-67
2021/07/04 10:44:05;;;;;;;20.50;19.40;;;30.40;69.60;;;;;;5005909;28;20478;-67
2021/07/04 10:47:19;;;;;;;18.97;18.17;;;30.10;68.40;;;;;;4998969;28;20467;-65
2021/07/04 10:49:56;;;;;;;18.80;18.00;;;29.90;69.60;;;;;;5000528;28;20993;-64
2021/07/04 10:52:38;;;;;;;19.53;18.63;;;29.70;69.20;;;;;;5011663;28;20460;-65
2021/07/04 10:55:07;;;;;;;19.47;18.57;;;29.40;70.60;;;;;;4992617;28;20474;-65
2021/07/04 10:57:36;;;;;;;20.60;19.67;;;28.90;75.50;;;;;;4992412;28;20478;-65
2021/07/04 11:00:25;;;;;;;19.70;18.70;;;28.60;81.10;;;;;;4992618;28;20446;-66
2021/07/04 11:02:55;;;;;;;20.60;19.60;;;28.00;84.50;;;;;;4992137;28;20540;-64
2021/07/04 11:05:45;;;;;;;20.07;18.97;;;27.40;90.80;;;;;;4998603;28;20457;-65
2021/07/04 11:08:23;;;;;;;19.70;18.80;;;27.10;93.10;;;;;;5001795;28;20458;-66
2021/07/04 11:11:13;;;;;;;20.93;19.87;;;27.10;94.20;;;;;;5009051;28;20459;-66
2021/07/04 11:13:49;;;;;;;19.97;19.07;;;27.30;95.90;;;;;;4999067;28;20438;-66
2021/07/04 11:16:25;;;;;;;19.83;18.93;;;27.60;96.80;;;;;;4993414;28;20442;-66
2021/07/04 11:18:55;;;;;;;21.37;20.37;;;27.90;97.50;;;;;;4993112;28;20470;-66
2021/07/04 11:21:24;;;;;;;20.67;19.73;;;27.90;96.90;;;;;;4993018;28;20449;-65
2021/07/04 11:24:17;;;;;;;20.87;19.77;;;28.40;95.20;;;;;;5000854;28;21006;-65
2021/07/04 11:27:23;;;;;;;20.03;18.83;;;28.30;92.90;;;;;;5007138;28;20827;-65
2021/07/04 11:30:24;;;;;;;20.50;19.60;;;28.40;91.90;;;;;;4994557;28;20450;-66
2021/07/04 11:33:27;;;;;;;21.10;20.10;;;28.40;90.10;;;;;;4992614;28;20537;-66
2021/07/04 11:35:56;;;;;;;21.47;20.47;;;27.90;90.60;;;;;;4992750;28;20932;-66
2021/07/04 11:38:26;;;;;;;20.30;19.40;;;27.80;90.00;;;;;;4993343;28;20462;-65
2021/07/04 11:40:53;;;;;;;20.57;19.63;;;28.10;89.50;;;;;;4993427;28;20474;-64
2021/07/04 11:43:22;;;;;;;21.07;20.07;;;28.50;91.70;;;;;;4998945;28;20832;-65
2021/07/04 11:45:54;;;;;;;20.77;19.80;;;28.40;90.20;;;;;;4995613;28;20948;-65
2021/07/04 11:48:24;;;;;;;20.70;19.40;;;28.80;90.40;;;;;;4992526;28;20508;-65
2021/07/04 11:50:53;;;;;;;21.00;20.00;;;29.20;88.80;;;;;;4992663;28;20483;-64
2021/07/04 11:53:20;;;;;;;19.47;18.57;;;28.90;90.00;;;;;;4997755;28;20454;-65
2021/07/04 11:55:59;;;;;;;21.20;20.20;;;28.60;90.30;;;;;;4997445;28;20967;-65
2021/07/04 11:58:27;;;;;;;22.20;20.93;;;28.20;91.10;;;;;;4998617;28;20478;-61
2021/07/04 12:00:54;;;;;;;20.93;20.03;;;28.10;92.00;;;;;;5012134;28;20446;-61
2021/07/04 12:03:23;;;;;;;19.83;18.83;;;28.00;93.00;;;;;;5005823;28;20482;-62
2021/07/04 12:05:50;;;;;;;20.37;19.43;;;28.00;96.60;;;;;;4994051;28;20458;-63
2021/07/04 12:08:17;;;;;;;19.47;18.47;;;28.00;97.10;;;;;;5011647;28;20486;-61
2021/07/04 12:10:54;;;;;;;19.67;18.80;;;28.00;96.20;;;;;;5005820;28;20949;-62
2021/07/04 12:13:20;;;;;;;19.43;18.53;;;28.20;95.40;;;;;;5007773;28;20841;-61
2021/07/04 12:15:50;;;;;;;18.60;17.77;;;28.20;94.40;;;;;;4997227;28;20443;-61
2021/07/04 12:18:18;;;;;;;18.00;17.30;;;28.10;92.70;;;;;;4996880;28;20466;-62
2021/07/04 12:20:54;;;;;;;18.00;17.17;;;28.00;92.50;;;;;;4995738;28;20826;-62
2021/07/04 12:23:22;;;;;;;16.53;15.93;;;27.90;91.20;;;;;;5011611;28;20824;-62
2021/07/04 12:25:49;;;;;;;17.70;16.83;;;27.90;90.60;;;;;;5011308;28;20454;-63
2021/07/04 12:28:17;;;;;;;18.90;18.10;;;28.00;89.70;;;;;;5011561;28;20489;-61
2021/07/04 12:30:45;;;;;;;17.03;16.13;;;28.20;89.40;;;;;;5011641;28;20450;-65
2021/07/04 12:33:14;;;;;;;16.30;15.70;;;28.50;86.70;;;;;;5008770;28;20451;-60
2021/07/04 12:35:42;;;;;;;16.80;16.10;;;28.40;87.40;;;;;;5009938;28;20457;-64